Shreveport, LA (71102)

4:55 PM CDT on April 20, 2018 (GMT -0500)
Central Bossier | | Change Station
Active Advisory: Flood Warning

Elev 177 ft 32.52 °N, 93.71 °W | Updated 6 minutes ago

Clear
Clear
71.6 °F
Feels Like 77 °F
N
0.0
Wind Variable Wind from East

Today
High -- | Low -- °F
--% Chance of Precip.
Yesterday
High -- | Low -- °F
Precip. -- in
Pressure 30.19 in
Visibility 10.0 miles
Clouds Clear
Heat Index 77 °F
Dew Point 48 °F
Humidity 44%
Rainfall 0.00 in
Snow Depth Not available.
6:39 AM 7:48 PM
Waxing Crescent, 28% visible
METAR KDTN 202053Z 09008G15KT 060V120 10SM CLR 21/06 A3019 RMK AO2 SLP223 T02060061 58035
Pressure 30.19 in
Visibility 10.0 miles
Clouds Clear
Heat Index 77 °F
Dew Point 48 °F
Humidity 44%
Rainfall 0.00 in
Snow Depth Not available.
6:39 AM 7:48 PM
Waxing Crescent, 28% visible
METAR KDTN 202053Z 09008G15KT 060V120 10SM CLR 21/06 A3019 RMK AO2 SLP223 T02060061 58035

Get Your Daily Forecast Email!

Thanks for signing up!

Be on the lookout for a verification email in your inbox.

You'll start receiving severe weather alerts in your inbox..

×

10-Day Weather Forecast

Almanac

Astronomy

Apr. 20, 2018 Rise Set
Actual Time
Civil Twilight
Nautical Twilight
Astronomical Twilight
Moon
Length of Visible Light
Length of Day
Tomorrow will be .
, % of the Moon is Illuminated

Today's Extremes

State Highs State Lows

Community

WunderPhotos

Category 6

Welcome to Category 6. This is the collective home for Weather Underground's featured writeups by Dr. Jeff Masters (right), Bob Henson (left), Chris Burt, and other regular contributors.

Nearby

Air Quality

  Air Quality AQ Index Pollutant
Not available.

Snow Depth

Station Depth Elevation

Earthquake Activity

City Distance Mag. Time & Date
Minimum magnitude displayed is 2.5.

Coastal Water Temperatures

Place Temperature

Stations

Nearby Weather Stations

Station Location Temp. Windchill Dew Point Humidity Wind Precip. Elev Updated Type
                   

Watches & Warnings

Flood Warning
Issued: 10:38 AM CDT Apr. 20, 2018 – National Weather Service

The Flood Warning continues for
the Bodcau bayou at bayou Bodcau Lake, Louisiana.
* Until further notice... or until the warning is cancelled.
* At 10:00 am Friday the pool stage was 181.8 feet.
* Minor flooding is occurring and minor flooding is forecast.
* Flood pool stage is 172 feet.
* Forecast... the lake will continue to fall to a stage of 181.4 feet
by Saturday morning.


Lat... Lon 3282 9351 3289 9344 3272 9346 3270 9351 3277 9351